地図

経路データ

SID SEASON NUMBER BASIN SUBBASIN NAME ISO_TIME NATURE LAT LON WMO_WIND WMO_PRES WMO_AGENCY TRACK_TYPE DIST2LAND LANDFALL IFLAG USA_AGENCY USA_ATCF_ID USA_LAT USA_LON USA_RECORD USA_STATUS USA_WIND USA_PRES USA_SSHS USA_R34_NE USA_R34_SE USA_R34_SW USA_R34_NW USA_R50_NE USA_R50_SE USA_R50_SW USA_R50_NW USA_R64_NE USA_R64_SE USA_R64_SW USA_R64_NW USA_POCI USA_ROCI USA_RMW USA_EYE TOKYO_LAT TOKYO_LON TOKYO_GRADE TOKYO_WIND TOKYO_PRES TOKYO_R50_DIR TOKYO_R50_LONG TOKYO_R50_SHORT TOKYO_R30_DIR TOKYO_R30_LONG TOKYO_R30_SHORT TOKYO_LAND CMA_LAT CMA_LON CMA_CAT CMA_WIND CMA_PRES HKO_LAT HKO_LON HKO_CAT HKO_WIND HKO_PRES NEWDELHI_LAT NEWDELHI_LON NEWDELHI_GRADE NEWDELHI_WIND NEWDELHI_PRES NEWDELHI_CI NEWDELHI_DP NEWDELHI_POCI REUNION_LAT REUNION_LON REUNION_TYPE REUNION_WIND REUNION_PRES REUNION_TNUM REUNION_CI REUNION_RMW REUNION_R34_NE REUNION_R34_SE REUNION_R34_SW REUNION_R34_NW REUNION_R50_NE REUNION_R50_SE REUNION_R50_SW REUNION_R50_NW REUNION_R64_NE REUNION_R64_SE REUNION_R64_SW REUNION_R64_NW BOM_LAT BOM_LON BOM_TYPE BOM_WIND BOM_PRES BOM_TNUM BOM_CI BOM_RMW BOM_R34_NE BOM_R34_SE BOM_R34_SW BOM_R34_NW BOM_R50_NE BOM_R50_SE BOM_R50_SW BOM_R50_NW BOM_R64_NE BOM_R64_SE BOM_R64_SW BOM_R64_NW BOM_ROCI BOM_POCI BOM_EYE BOM_POS_METHOD BOM_PRES_METHOD NADI_LAT NADI_LON NADI_CAT NADI_WIND NADI_PRES WELLINGTON_LAT WELLINGTON_LON WELLINGTON_WIND WELLINGTON_PRES DS824_LAT DS824_LON DS824_STAGE DS824_WIND DS824_PRES TD9636_LAT TD9636_LON TD9636_STAGE TD9636_WIND TD9636_PRES TD9635_LAT TD9635_LON TD9635_WIND TD9635_PRES TD9635_ROCI NEUMANN_LAT NEUMANN_LON NEUMANN_CLASS NEUMANN_WIND NEUMANN_PRES MLC_LAT MLC_LON MLC_CLASS MLC_WIND MLC_PRES USA_GUST BOM_GUST BOM_GUST_PER REUNION_GUST REUNION_GUST_PER USA_SEAHGT USA_SEARAD_NE USA_SEARAD_SE USA_SEARAD_SW USA_SEARAD_NW STORM_SPEED STORM_DIR
1859335S05090 1860 28 SI WA NOT_NAMED 1859-11-30 18:00:00 NR -4.70000 90.2000 main 1012 1012 __________O___ -1 -4.70000 90.2000 7 2 224
1859335S05090 1860 28 SI WA NOT_NAMED 1859-11-30 21:00:00 NR -4.78586 90.1246 main 1027 1027 __________P___ -1 -4.78586 90.1246 7 3 220
1859335S05090 1860 28 SI WA NOT_NAMED 1859-12-01 00:00:00 NR -4.91736 90.0193 main 1041 1041 __________P___ -1 -4.91736 90.0193 7 4 217
1859335S05090 1860 28 SI MM NOT_NAMED 1859-12-01 03:00:00 NR -5.14019 89.8545 main 1060 1060 __________P___ -1 -5.14019 89.8545 7 7 216
1859335S05090 1860 28 SI MM NOT_NAMED 1859-12-01 06:00:00 NR -5.50000 89.6000 main 1109 1109 __________O___ -1 -5.50000 89.6000 7 11 215
1859335S05090 1860 28 SI MM NOT_NAMED 1859-12-01 09:00:00 NR -6.02336 89.2384 main 1174 1174 __________P___ -1 -6.02336 89.2384 7 14 214
1859335S05090 1860 28 SI MM NOT_NAMED 1859-12-01 12:00:00 NR -6.66042 88.8033 main 1250 1250 __________P___ -1 -6.66042 88.8033 7 16 214
1859335S05090 1860 28 SI MM NOT_NAMED 1859-12-01 15:00:00 NR -7.34223 88.3414 main 1331 1331 __________P___ -1 -7.34223 88.3414 7 16 214
1859335S05090 1860 28 SI MM NOT_NAMED 1859-12-01 18:00:00 NR -8.00000 87.9000 main 1408 1408 __________O___ -1 -8.00000 87.9000 7 14 214
1859335S05090 1860 28 SI MM NOT_NAMED 1859-12-01 21:00:00 NR -8.51542 87.5416 main 1475 1475 __________P___ -1 -8.51542 87.5416 7 12 214
1859335S05090 1860 28 SI MM NOT_NAMED 1859-12-02 00:00:00 NR -8.99974 87.2116 main 1532 1532 __________P___ -1 -8.99974 87.2116 7 12 213
1859335S05090 1860 28 SI MM NOT_NAMED 1859-12-02 03:00:00 NR -9.48420 86.9009 main 1589 1589 __________P___ -1 -9.48420 86.9009 7 12 211
1859335S05090 1860 28 SI MM NOT_NAMED 1859-12-02 06:00:00 NR -10.0000 86.6000 main 1648 1648 __________O___ -1 -10.0000 86.6000 7 13 209
1859335S05090 1860 28 SI MM NOT_NAMED 1859-12-02 09:00:00 NR -10.5769 86.2765 main 1713 1713 __________P___ -1 -10.5769 86.2765 7 14 208
1859335S05090 1860 28 SI MM NOT_NAMED 1859-12-02 12:00:00 NR -11.1901 85.9624 main 1778 1778 __________P___ -1 -11.1901 85.9624 7 14 205
1859335S05090 1860 28 SI MM NOT_NAMED 1859-12-02 15:00:00 NR -11.8332 85.6671 main 1844 1844 __________P___ -1 -11.8332 85.6671 7 14 203
1859335S05090 1860 28 SI MM NOT_NAMED 1859-12-02 18:00:00 NR -12.5000 85.4000 main 1918 1918 __________O___ -1 -12.5000 85.4000 7 15 200
1859335S05090 1860 28 SI MM NOT_NAMED 1859-12-02 21:00:00 NR -13.2230 85.1391 main 1992 1992 __________P___ -1 -13.2230 85.1391 7 15 198
1859335S05090 1860 28 SI MM NOT_NAMED 1859-12-03 00:00:00 NR -13.9598 84.9106 main 2066 2066 __________P___ -1 -13.9598 84.9106 7 15 195
1859335S05090 1860 28 SI MM NOT_NAMED 1859-12-03 03:00:00 NR -14.6668 84.7267 main 2134 2134 __________P___ -1 -14.6668 84.7267 7 14 193
1859335S05090 1860 28 SI MM NOT_NAMED 1859-12-03 06:00:00 NR -15.3000 84.6000 main 2187 2187 __________O___ -1 -15.3000 84.6000 7 12 190
1859335S05090 1860 28 SI MM NOT_NAMED 1859-12-03 09:00:00 NR -15.8079 84.5177 main 2233 2233 __________P___ -1 -15.8079 84.5177 7 10 186
1859335S05090 1860 28 SI MM NOT_NAMED 1859-12-03 12:00:00 NR -16.2396 84.4946 main 2264 2264 __________P___ -1 -16.2396 84.4946 7 8 0
1859335S05090 1860 28 SI MM NOT_NAMED 1859-12-03 15:00:00 NR -16.6266 84.5242 main 2296 2296 __________P___ -1 -16.6266 84.5242 7 8 172
1859335S05090 1860 28 SI MM NOT_NAMED 1859-12-03 18:00:00 NR -17.0000 84.6000 main 2320 2320 __________O___ -1 -17.0000 84.6000 7 8 168
1859335S05090 1860 28 SI MM NOT_NAMED 1859-12-03 21:00:00 NR -17.4072 84.7066 main 2345 2345 __________P___ -1 -17.4072 84.7066 7 8 163
1859335S05090 1860 28 SI MM NOT_NAMED 1859-12-04 00:00:00 NR -17.8076 84.8547 main 2364 2364 __________P___ -1 -17.8076 84.8547 7 9 159
1859335S05090 1860 28 SI MM NOT_NAMED 1859-12-04 03:00:00 NR -18.2041 85.0255 main 2391 2391 __________P___ -1 -18.2041 85.0255 7 9 157
1859335S05090 1860 28 SI MM NOT_NAMED 1859-12-04 06:00:00 NR -18.6000 85.2000 main 2411 2411 __________O___ -1 -18.6000 85.2000 7 9 160
1859335S05090 1860 28 SI MM NOT_NAMED 1859-12-04 09:00:00 NR -19.0202 85.3461 main 2439 2432 __________P___ -1 -19.0202 85.3461 7 9 162
1859335S05090 1860 28 SI MM NOT_NAMED 1859-12-04 12:00:00 NR -19.4374 85.4927 main 2461 2461 __________P___ -1 -19.4374 85.4927 7 9 161
1859335S05090 1860 28 SI MM NOT_NAMED 1859-12-04 15:00:00 NR -19.8359 85.6429 main 2490 2490 __________P___ -1 -19.8359 85.6429 7 8 159
1859335S05090 1860 28 SI MM NOT_NAMED 1859-12-04 18:00:00 NR -20.2000 85.8000 main 2513 2513 __________O___ -1 -20.2000 85.8000 7 8 156
1859335S05090 1860 28 SI MM NOT_NAMED 1859-12-04 21:00:00 NR -20.5189 85.9660 main 2528 2528 __________P___ -1 -20.5189 85.9660 7 7 152
1859335S05090 1860 28 SI MM NOT_NAMED 1859-12-05 00:00:00 NR -20.8002 86.1396 main 2550 2544 __________P___ -1 -20.8002 86.1396 7 6 148
1859335S05090 1860 28 SI MM NOT_NAMED 1859-12-05 03:00:00 NR -21.0564 86.3184 main 2566 2560 __________P___ -1 -21.0564 86.3184 7 6 146
1859335S05090 1860 28 SI MM NOT_NAMED 1859-12-05 06:00:00 NR -21.3000 86.5000 main 2573 __________O___ -1 -21.3000 86.5000 7 6 145

IBTrACS Databaseについて

本データベースは、米国NOAAが公開する1842年以降の世界の熱帯低気圧のベストトラックデータアーカイブInternational Best Track Archive for Climate Stewardship (IBTrACS)を、ウェブで閲覧しやすい形式に変換したものです。

最終更新日:2021-10-25